sensor_id;sensor_type;location;lat;lon;timestamp;P1;durP1;ratioP1;P2;durP2;ratioP2
65230;SDS011;51813;40.666;16.602;2022-09-21T00:00:02;1.45;;;0.60;;
65230;SDS011;51813;40.666;16.602;2022-09-21T00:02:29;1.35;;;0.50;;
65230;SDS011;51813;40.666;16.602;2022-09-21T00:04:54;1.23;;;0.50;;
65230;SDS011;51813;40.666;16.602;2022-09-21T00:07:20;0.75;;;0.50;;
65230;SDS011;51813;40.666;16.602;2022-09-21T00:09:46;1.27;;;0.70;;
65230;SDS011;51813;40.666;16.602;2022-09-21T00:12:11;1.27;;;0.68;;
65230;SDS011;51813;40.666;16.602;2022-09-21T00:14:37;0.85;;;0.38;;
65230;SDS011;51813;40.666;16.602;2022-09-21T00:17:03;0.68;;;0.40;;
65230;SDS011;51813;40.666;16.602;2022-09-21T00:19:29;0.98;;;0.57;;
65230;SDS011;51813;40.666;16.602;2022-09-21T00:21:54;1.38;;;0.60;;
65230;SDS011;51813;40.666;16.602;2022-09-21T00:24:20;1.02;;;0.40;;
65230;SDS011;51813;40.666;16.602;2022-09-21T00:26:46;0.50;;;0.30;;
65230;SDS011;51813;40.666;16.602;2022-09-21T00:29:13;1.63;;;0.55;;
65230;SDS011;51813;40.666;16.602;2022-09-21T00:31:39;1.10;;;0.50;;
65230;SDS011;51813;40.666;16.602;2022-09-21T00:34:04;0.60;;;0.30;;
65230;SDS011;51813;40.666;16.602;2022-09-21T00:36:33;1.50;;;0.47;;
65230;SDS011;51813;40.666;16.602;2022-09-21T00:38:59;0.73;;;0.40;;
65230;SDS011;51813;40.666;16.602;2022-09-21T00:41:26;0.95;;;0.30;;
65230;SDS011;51813;40.666;16.602;2022-09-21T00:46:40;1.40;;;0.60;;
65230;SDS011;51813;40.666;16.602;2022-09-21T00:49:08;1.50;;;0.70;;
65230;SDS011;51813;40.666;16.602;2022-09-21T00:51:34;1.27;;;0.60;;
65230;SDS011;51813;40.666;16.602;2022-09-21T00:54:02;2.38;;;1.08;;
65230;SDS011;51813;40.666;16.602;2022-09-21T00:56:31;2.47;;;0.90;;
65230;SDS011;51813;40.666;16.602;2022-09-21T00:58:59;1.73;;;0.85;;
65230;SDS011;51813;40.666;16.602;2022-09-21T01:01:25;1.92;;;0.90;;
65230;SDS011;51813;40.666;16.602;2022-09-21T01:03:51;1.58;;;0.80;;
65230;SDS011;51813;40.666;16.602;2022-09-21T01:06:20;1.70;;;0.80;;
65230;SDS011;51813;40.666;16.602;2022-09-21T01:08:49;2.50;;;1.00;;
65230;SDS011;51813;40.666;16.602;2022-09-21T01:11:22;1.17;;;0.65;;
65230;SDS011;51813;40.666;16.602;2022-09-21T01:16:58;2.20;;;0.90;;
65230;SDS011;51813;40.666;16.602;2022-09-21T01:27:45;2.28;;;1.00;;
65230;SDS011;51813;40.666;16.602;2022-09-21T01:30:22;1.83;;;1.00;;
65230;SDS011;51813;40.666;16.602;2022-09-21T01:33:12;1.58;;;0.88;;
65230;SDS011;51813;40.666;16.602;2022-09-21T01:35:42;2.15;;;1.00;;
65230;SDS011;51813;40.666;16.602;2022-09-21T01:38:18;2.22;;;0.95;;
65230;SDS011;51813;40.666;16.602;2022-09-21T01:40:51;1.90;;;0.70;;
65230;SDS011;51813;40.666;16.602;2022-09-21T01:43:25;1.60;;;0.75;;
65230;SDS011;51813;40.666;16.602;2022-09-21T01:45:55;1.77;;;0.90;;
65230;SDS011;51813;40.666;16.602;2022-09-21T01:50:54;1.67;;;0.68;;
65230;SDS011;51813;40.666;16.602;2022-09-21T01:53:32;1.23;;;0.70;;
65230;SDS011;51813;40.666;16.602;2022-09-21T01:56:12;1.23;;;0.63;;
65230;SDS011;51813;40.666;16.602;2022-09-21T01:58:44;1.42;;;0.63;;
65230;SDS011;51813;40.666;16.602;2022-09-21T02:01:15;1.98;;;0.80;;
65230;SDS011;51813;40.666;16.602;2022-09-21T02:06:41;1.10;;;0.60;;
65230;SDS011;51813;40.666;16.602;2022-09-21T02:09:10;0.80;;;0.45;;
65230;SDS011;51813;40.666;16.602;2022-09-21T02:11:36;1.05;;;0.55;;
65230;SDS011;51813;40.666;16.602;2022-09-21T02:14:30;1.05;;;0.60;;
65230;SDS011;51813;40.666;16.602;2022-09-21T02:20:00;1.33;;;0.43;;
65230;SDS011;51813;40.666;16.602;2022-09-21T02:25:05;1.30;;;0.40;;
65230;SDS011;51813;40.666;16.602;2022-09-21T02:30:24;0.68;;;0.50;;
65230;SDS011;51813;40.666;16.602;2022-09-21T02:35:49;0.93;;;0.38;;
65230;SDS011;51813;40.666;16.602;2022-09-21T02:38:34;0.95;;;0.45;;
65230;SDS011;51813;40.666;16.602;2022-09-21T02:46:33;0.80;;;0.40;;
65230;SDS011;51813;40.666;16.602;2022-09-21T02:49:06;0.80;;;0.40;;
65230;SDS011;51813;40.666;16.602;2022-09-21T02:51:44;0.75;;;0.40;;
65230;SDS011;51813;40.666;16.602;2022-09-21T02:54:15;0.47;;;0.40;;
65230;SDS011;51813;40.666;16.602;2022-09-21T02:56:43;0.43;;;0.38;;
65230;SDS011;51813;40.666;16.602;2022-09-21T02:59:12;0.85;;;0.40;;
65230;SDS011;51813;40.666;16.602;2022-09-21T03:01:40;0.65;;;0.30;;
65230;SDS011;51813;40.666;16.602;2022-09-21T03:04:07;0.68;;;0.30;;
65230;SDS011;51813;40.666;16.602;2022-09-21T03:06:34;1.08;;;0.47;;
65230;SDS011;51813;40.666;16.602;2022-09-21T03:09:01;0.60;;;0.30;;
65230;SDS011;51813;40.666;16.602;2022-09-21T03:11:27;1.20;;;0.55;;
65230;SDS011;51813;40.666;16.602;2022-09-21T03:13:53;1.02;;;0.40;;
65230;SDS011;51813;40.666;16.602;2022-09-21T03:16:18;0.65;;;0.30;;
65230;SDS011;51813;40.666;16.602;2022-09-21T03:18:45;0.80;;;0.50;;
65230;SDS011;51813;40.666;16.602;2022-09-21T03:21:10;1.83;;;0.50;;
65230;SDS011;51813;40.666;16.602;2022-09-21T03:23:37;0.73;;;0.30;;
65230;SDS011;51813;40.666;16.602;2022-09-21T03:26:03;0.57;;;0.40;;
65230;SDS011;51813;40.666;16.602;2022-09-21T03:28:29;0.43;;;0.40;;
65230;SDS011;51813;40.666;16.602;2022-09-21T03:30:55;0.63;;;0.40;;
65230;SDS011;51813;40.666;16.602;2022-09-21T03:33:21;0.98;;;0.47;;
65230;SDS011;51813;40.666;16.602;2022-09-21T03:35:47;0.60;;;0.30;;
65230;SDS011;51813;40.666;16.602;2022-09-21T03:38:13;0.73;;;0.40;;
65230;SDS011;51813;40.666;16.602;2022-09-21T03:40:43;0.60;;;0.38;;
65230;SDS011;51813;40.666;16.602;2022-09-21T03:43:13;1.30;;;0.40;;
65230;SDS011;51813;40.666;16.602;2022-09-21T03:45:39;0.60;;;0.35;;
65230;SDS011;51813;40.666;16.602;2022-09-21T03:48:06;0.47;;;0.30;;
65230;SDS011;51813;40.666;16.602;2022-09-21T03:50:33;0.93;;;0.38;;
65230;SDS011;51813;40.666;16.602;2022-09-21T03:52:58;1.33;;;0.50;;
65230;SDS011;51813;40.666;16.602;2022-09-21T03:55:25;0.80;;;0.40;;
65230;SDS011;51813;40.666;16.602;2022-09-21T03:57:51;0.93;;;0.40;;
65230;SDS011;51813;40.666;16.602;2022-09-21T04:00:17;1.17;;;0.43;;
65230;SDS011;51813;40.666;16.602;2022-09-21T04:02:43;0.70;;;0.40;;
65230;SDS011;51813;40.666;16.602;2022-09-21T04:05:09;0.63;;;0.40;;
65230;SDS011;51813;40.666;16.602;2022-09-21T04:07:38;1.05;;;0.50;;
65230;SDS011;51813;40.666;16.602;2022-09-21T04:10:05;1.17;;;0.63;;
65230;SDS011;51813;40.666;16.602;2022-09-21T04:12:33;0.47;;;0.40;;
65230;SDS011;51813;40.666;16.602;2022-09-21T04:15:00;1.85;;;0.50;;
65230;SDS011;51813;40.666;16.602;2022-09-21T04:17:26;1.25;;;0.50;;
65230;SDS011;51813;40.666;16.602;2022-09-21T04:19:52;1.25;;;0.50;;
65230;SDS011;51813;40.666;16.602;2022-09-21T04:22:18;0.63;;;0.40;;
65230;SDS011;51813;40.666;16.602;2022-09-21T04:24:44;0.88;;;0.40;;
65230;SDS011;51813;40.666;16.602;2022-09-21T04:27:10;0.73;;;0.40;;
65230;SDS011;51813;40.666;16.602;2022-09-21T04:29:36;0.57;;;0.40;;
65230;SDS011;51813;40.666;16.602;2022-09-21T04:32:03;0.70;;;0.40;;
65230;SDS011;51813;40.666;16.602;2022-09-21T04:34:29;1.60;;;0.40;;
65230;SDS011;51813;40.666;16.602;2022-09-21T04:36:56;0.60;;;0.38;;
65230;SDS011;51813;40.666;16.602;2022-09-21T04:39:22;1.35;;;0.50;;
65230;SDS011;51813;40.666;16.602;2022-09-21T04:41:49;1.23;;;0.52;;
65230;SDS011;51813;40.666;16.602;2022-09-21T04:44:15;1.35;;;0.70;;
65230;SDS011;51813;40.666;16.602;2022-09-21T04:46:42;0.82;;;0.45;;
65230;SDS011;51813;40.666;16.602;2022-09-21T04:49:08;0.98;;;0.47;;
65230;SDS011;51813;40.666;16.602;2022-09-21T04:51:34;0.57;;;0.40;;
65230;SDS011;51813;40.666;16.602;2022-09-21T04:54:01;0.90;;;0.50;;
65230;SDS011;51813;40.666;16.602;2022-09-21T04:56:26;1.73;;;0.60;;
65230;SDS011;51813;40.666;16.602;2022-09-21T04:58:52;0.60;;;0.40;;
65230;SDS011;51813;40.666;16.602;2022-09-21T05:01:18;1.10;;;0.60;;
65230;SDS011;51813;40.666;16.602;2022-09-21T05:03:44;1.00;;;0.50;;
65230;SDS011;51813;40.666;16.602;2022-09-21T05:06:09;1.15;;;0.50;;
65230;SDS011;51813;40.666;16.602;2022-09-21T05:08:37;2.05;;;0.70;;
65230;SDS011;51813;40.666;16.602;2022-09-21T05:11:22;1.75;;;0.68;;
65230;SDS011;51813;40.666;16.602;2022-09-21T05:13:49;0.95;;;0.43;;
65230;SDS011;51813;40.666;16.602;2022-09-21T05:16:15;0.90;;;0.50;;
65230;SDS011;51813;40.666;16.602;2022-09-21T05:18:41;1.38;;;0.60;;
65230;SDS011;51813;40.666;16.602;2022-09-21T05:21:08;0.85;;;0.57;;
65230;SDS011;51813;40.666;16.602;2022-09-21T05:23:36;1.55;;;0.68;;
65230;SDS011;51813;40.666;16.602;2022-09-21T05:26:01;1.63;;;0.60;;
65230;SDS011;51813;40.666;16.602;2022-09-21T05:28:27;1.25;;;0.65;;
65230;SDS011;51813;40.666;16.602;2022-09-21T05:31:37;1.45;;;0.65;;
65230;SDS011;51813;40.666;16.602;2022-09-21T05:33:47;1.13;;;0.60;;
65230;SDS011;51813;40.666;16.602;2022-09-21T05:39:01;1.90;;;0.70;;
65230;SDS011;51813;40.666;16.602;2022-09-21T05:41:27;2.03;;;0.77;;
65230;SDS011;51813;40.666;16.602;2022-09-21T05:43:53;1.35;;;0.68;;
65230;SDS011;51813;40.666;16.602;2022-09-21T05:46:38;2.25;;;0.60;;
65230;SDS011;51813;40.666;16.602;2022-09-21T05:57:33;1.05;;;0.52;;
65230;SDS011;51813;40.666;16.602;2022-09-21T06:00:17;1.52;;;0.70;;
65230;SDS011;51813;40.666;16.602;2022-09-21T06:05:35;1.40;;;0.70;;
65230;SDS011;51813;40.666;16.602;2022-09-21T06:08:00;1.90;;;0.90;;
65230;SDS011;51813;40.666;16.602;2022-09-21T06:10:27;1.77;;;0.80;;
65230;SDS011;51813;40.666;16.602;2022-09-21T06:12:57;1.73;;;0.90;;
65230;SDS011;51813;40.666;16.602;2022-09-21T06:15:23;2.13;;;0.95;;
65230;SDS011;51813;40.666;16.602;2022-09-21T06:17:49;1.80;;;0.90;;
65230;SDS011;51813;40.666;16.602;2022-09-21T06:20:15;1.40;;;0.90;;
65230;SDS011;51813;40.666;16.602;2022-09-21T06:22:40;2.22;;;1.10;;
65230;SDS011;51813;40.666;16.602;2022-09-21T06:25:06;2.17;;;1.00;;
65230;SDS011;51813;40.666;16.602;2022-09-21T06:27:32;1.65;;;1.10;;
65230;SDS011;51813;40.666;16.602;2022-09-21T06:29:58;2.33;;;1.02;;
65230;SDS011;51813;40.666;16.602;2022-09-21T06:32:23;1.48;;;0.80;;
65230;SDS011;51813;40.666;16.602;2022-09-21T06:34:49;1.50;;;0.77;;
65230;SDS011;51813;40.666;16.602;2022-09-21T06:37:15;1.70;;;0.80;;
65230;SDS011;51813;40.666;16.602;2022-09-21T06:39:41;1.73;;;1.05;;
65230;SDS011;51813;40.666;16.602;2022-09-21T06:42:06;1.33;;;0.85;;
65230;SDS011;51813;40.666;16.602;2022-09-21T06:44:32;2.10;;;1.00;;
65230;SDS011;51813;40.666;16.602;2022-09-21T06:46:58;2.40;;;0.90;;
65230;SDS011;51813;40.666;16.602;2022-09-21T06:49:23;1.55;;;0.88;;
65230;SDS011;51813;40.666;16.602;2022-09-21T06:51:52;1.63;;;0.90;;
65230;SDS011;51813;40.666;16.602;2022-09-21T06:54:18;1.05;;;0.70;;
65230;SDS011;51813;40.666;16.602;2022-09-21T06:56:44;1.95;;;0.88;;
65230;SDS011;51813;40.666;16.602;2022-09-21T06:59:10;2.53;;;1.00;;
65230;SDS011;51813;40.666;16.602;2022-09-21T07:01:36;1.77;;;1.00;;
65230;SDS011;51813;40.666;16.602;2022-09-21T07:04:02;1.83;;;1.00;;
65230;SDS011;51813;40.666;16.602;2022-09-21T07:06:27;1.63;;;0.90;;
65230;SDS011;51813;40.666;16.602;2022-09-21T07:08:54;1.60;;;0.80;;
65230;SDS011;51813;40.666;16.602;2022-09-21T07:11:19;2.03;;;0.82;;
65230;SDS011;51813;40.666;16.602;2022-09-21T07:13:47;3.25;;;1.10;;
65230;SDS011;51813;40.666;16.602;2022-09-21T07:16:14;1.38;;;0.77;;
65230;SDS011;51813;40.666;16.602;2022-09-21T07:18:40;1.90;;;0.98;;
65230;SDS011;51813;40.666;16.602;2022-09-21T07:21:07;1.98;;;1.05;;
65230;SDS011;51813;40.666;16.602;2022-09-21T07:23:35;2.45;;;1.00;;
65230;SDS011;51813;40.666;16.602;2022-09-21T07:26:01;2.75;;;1.13;;
65230;SDS011;51813;40.666;16.602;2022-09-21T07:28:29;2.03;;;1.00;;
65230;SDS011;51813;40.666;16.602;2022-09-21T07:30:56;1.48;;;0.90;;
65230;SDS011;51813;40.666;16.602;2022-09-21T07:33:23;1.73;;;0.80;;
65230;SDS011;51813;40.666;16.602;2022-09-21T07:35:50;1.80;;;0.90;;
65230;SDS011;51813;40.666;16.602;2022-09-21T07:38:20;2.03;;;1.02;;
65230;SDS011;51813;40.666;16.602;2022-09-21T07:40:47;1.10;;;0.63;;
65230;SDS011;51813;40.666;16.602;2022-09-21T07:43:13;1.95;;;0.80;;
65230;SDS011;51813;40.666;16.602;2022-09-21T07:45:40;1.98;;;0.90;;
65230;SDS011;51813;40.666;16.602;2022-09-21T07:48:06;2.15;;;0.80;;
65230;SDS011;51813;40.666;16.602;2022-09-21T07:50:35;1.13;;;0.68;;
65230;SDS011;51813;40.666;16.602;2022-09-21T07:53:01;2.00;;;1.00;;
65230;SDS011;51813;40.666;16.602;2022-09-21T07:55:28;2.50;;;0.90;;
65230;SDS011;51813;40.666;16.602;2022-09-21T07:57:54;1.63;;;0.95;;
65230;SDS011;51813;40.666;16.602;2022-09-21T08:00:38;1.67;;;0.80;;
65230;SDS011;51813;40.666;16.602;2022-09-21T08:03:04;1.63;;;0.70;;
65230;SDS011;51813;40.666;16.602;2022-09-21T08:05:31;3.22;;;0.95;;
65230;SDS011;51813;40.666;16.602;2022-09-21T08:07:57;2.22;;;1.00;;
65230;SDS011;51813;40.666;16.602;2022-09-21T08:10:23;2.45;;;0.75;;
65230;SDS011;51813;40.666;16.602;2022-09-21T08:12:52;2.05;;;0.85;;
65230;SDS011;51813;40.666;16.602;2022-09-21T08:15:18;2.85;;;0.70;;
65230;SDS011;51813;40.666;16.602;2022-09-21T08:17:44;2.08;;;0.80;;
65230;SDS011;51813;40.666;16.602;2022-09-21T08:20:10;3.25;;;0.88;;
65230;SDS011;51813;40.666;16.602;2022-09-21T08:22:35;2.05;;;0.82;;
65230;SDS011;51813;40.666;16.602;2022-09-21T08:25:01;2.00;;;1.10;;
65230;SDS011;51813;40.666;16.602;2022-09-21T08:27:28;2.88;;;1.20;;
65230;SDS011;51813;40.666;16.602;2022-09-21T08:29:54;2.03;;;0.80;;
65230;SDS011;51813;40.666;16.602;2022-09-21T08:32:20;4.20;;;1.00;;
65230;SDS011;51813;40.666;16.602;2022-09-21T08:34:46;1.92;;;1.00;;
65230;SDS011;51813;40.666;16.602;2022-09-21T08:37:11;3.55;;;1.00;;
65230;SDS011;51813;40.666;16.602;2022-09-21T08:39:37;2.17;;;1.00;;
65230;SDS011;51813;40.666;16.602;2022-09-21T08:44:58;1.90;;;1.00;;
65230;SDS011;51813;40.666;16.602;2022-09-21T08:47:40;2.28;;;1.13;;
65230;SDS011;51813;40.666;16.602;2022-09-21T08:55:17;2.40;;;1.00;;
65230;SDS011;51813;40.666;16.602;2022-09-21T08:57:44;2.28;;;1.25;;
65230;SDS011;51813;40.666;16.602;2022-09-21T09:00:14;2.15;;;1.10;;
65230;SDS011;51813;40.666;16.602;2022-09-21T09:03:04;2.00;;;1.20;;
65230;SDS011;51813;40.666;16.602;2022-09-21T09:13:30;2.50;;;1.40;;
65230;SDS011;51813;40.666;16.602;2022-09-21T09:21:42;2.40;;;1.25;;
65230;SDS011;51813;40.666;16.602;2022-09-21T09:24:17;2.42;;;1.00;;
65230;SDS011;51813;40.666;16.602;2022-09-21T09:26:54;3.97;;;1.38;;
65230;SDS011;51813;40.666;16.602;2022-09-21T09:29:27;2.20;;;1.23;;
65230;SDS011;51813;40.666;16.602;2022-09-21T09:32:09;3.25;;;1.10;;
65230;SDS011;51813;40.666;16.602;2022-09-21T09:37:13;1.80;;;1.10;;
65230;SDS011;51813;40.666;16.602;2022-09-21T09:39:40;2.72;;;1.08;;
65230;SDS011;51813;40.666;16.602;2022-09-21T09:50:41;2.08;;;1.17;;
65230;SDS011;51813;40.666;16.602;2022-09-21T09:53:12;1.98;;;1.00;;
65230;SDS011;51813;40.666;16.602;2022-09-21T09:55:42;2.22;;;1.00;;
65230;SDS011;51813;40.666;16.602;2022-09-21T09:58:18;2.38;;;1.15;;
65230;SDS011;51813;40.666;16.602;2022-09-21T10:00:51;2.45;;;1.17;;
65230;SDS011;51813;40.666;16.602;2022-09-21T10:03:19;2.13;;;1.10;;
65230;SDS011;51813;40.666;16.602;2022-09-21T10:05:49;2.10;;;1.05;;
65230;SDS011;51813;40.666;16.602;2022-09-21T10:08:30;2.33;;;1.00;;
65230;SDS011;51813;40.666;16.602;2022-09-21T10:11:06;2.38;;;1.20;;
65230;SDS011;51813;40.666;16.602;2022-09-21T10:13:33;1.95;;;1.00;;
65230;SDS011;51813;40.666;16.602;2022-09-21T10:16:02;1.85;;;1.05;;
65230;SDS011;51813;40.666;16.602;2022-09-21T10:23:58;1.92;;;1.00;;
65230;SDS011;51813;40.666;16.602;2022-09-21T10:26:52;2.50;;;0.98;;
65230;SDS011;51813;40.666;16.602;2022-09-21T10:31:56;1.55;;;0.90;;
65230;SDS011;51813;40.666;16.602;2022-09-21T10:34:30;2.20;;;1.08;;
65230;SDS011;51813;40.666;16.602;2022-09-21T10:36:58;3.08;;;0.93;;
65230;SDS011;51813;40.666;16.602;2022-09-21T10:44:41;2.47;;;1.17;;
65230;SDS011;51813;40.666;16.602;2022-09-21T10:47:17;3.42;;;1.23;;
65230;SDS011;51813;40.666;16.602;2022-09-21T10:49:54;2.30;;;1.00;;
65230;SDS011;51813;40.666;16.602;2022-09-21T10:52:23;1.50;;;0.90;;
65230;SDS011;51813;40.666;16.602;2022-09-21T10:54:56;2.17;;;1.10;;
65230;SDS011;51813;40.666;16.602;2022-09-21T10:57:23;2.33;;;0.90;;
65230;SDS011;51813;40.666;16.602;2022-09-21T10:59:51;1.70;;;0.80;;
65230;SDS011;51813;40.666;16.602;2022-09-21T11:10:39;1.90;;;0.98;;
65230;SDS011;51813;40.666;16.602;2022-09-21T11:15:55;2.47;;;1.05;;
65230;SDS011;51813;40.666;16.602;2022-09-21T11:21:29;2.85;;;1.25;;
65230;SDS011;51813;40.666;16.602;2022-09-21T11:38:04;1.60;;;0.90;;
65230;SDS011;51813;40.666;16.602;2022-09-21T11:57:08;2.95;;;1.10;;
65230;SDS011;51813;40.666;16.602;2022-09-21T12:04:42;1.33;;;0.80;;
65230;SDS011;51813;40.666;16.602;2022-09-21T12:07:26;1.05;;;0.65;;
65230;SDS011;51813;40.666;16.602;2022-09-21T12:13:10;1.58;;;0.82;;
65230;SDS011;51813;40.666;16.602;2022-09-21T12:16:31;2.40;;;0.82;;
65230;SDS011;51813;40.666;16.602;2022-09-21T12:18:58;2.08;;;0.73;;
65230;SDS011;51813;40.666;16.602;2022-09-21T12:21:38;1.58;;;0.80;;
65230;SDS011;51813;40.666;16.602;2022-09-21T12:24:17;2.88;;;0.85;;
65230;SDS011;51813;40.666;16.602;2022-09-21T12:26:48;1.58;;;0.70;;
65230;SDS011;51813;40.666;16.602;2022-09-21T12:29:37;1.38;;;0.70;;
65230;SDS011;51813;40.666;16.602;2022-09-21T12:34:45;1.95;;;0.80;;
65230;SDS011;51813;40.666;16.602;2022-09-21T12:40:05;2.42;;;1.25;;
65230;SDS011;51813;40.666;16.602;2022-09-21T12:45:34;1.88;;;0.88;;
65230;SDS011;51813;40.666;16.602;2022-09-21T12:50:43;1.98;;;0.80;;
65230;SDS011;51813;40.666;16.602;2022-09-21T12:53:27;1.30;;;0.85;;
65230;SDS011;51813;40.666;16.602;2022-09-21T12:56:05;1.58;;;0.70;;
65230;SDS011;51813;40.666;16.602;2022-09-21T13:07:06;2.47;;;0.95;;
65230;SDS011;51813;40.666;16.602;2022-09-21T13:09:44;2.07;;;0.70;;
65230;SDS011;51813;40.666;16.602;2022-09-21T13:12:24;2.90;;;0.77;;
65230;SDS011;51813;40.666;16.602;2022-09-21T13:15:03;4.25;;;0.85;;
65230;SDS011;51813;40.666;16.602;2022-09-21T13:17:37;2.85;;;0.90;;
65230;SDS011;51813;40.666;16.602;2022-09-21T13:20:04;1.73;;;0.95;;
65230;SDS011;51813;40.666;16.602;2022-09-21T13:25:19;3.25;;;0.90;;
65230;SDS011;51813;40.666;16.602;2022-09-21T13:30:38;2.58;;;1.00;;
65230;SDS011;51813;40.666;16.602;2022-09-21T13:36:44;2.03;;;0.90;;
65230;SDS011;51813;40.666;16.602;2022-09-21T13:39:11;3.60;;;0.80;;
65230;SDS011;51813;40.666;16.602;2022-09-21T13:41:44;2.63;;;0.80;;
65230;SDS011;51813;40.666;16.602;2022-09-21T13:44:18;2.88;;;0.82;;
65230;SDS011;51813;40.666;16.602;2022-09-21T13:47:05;2.83;;;0.95;;
65230;SDS011;51813;40.666;16.602;2022-09-21T13:49:53;4.00;;;0.90;;
65230;SDS011;51813;40.666;16.602;2022-09-21T13:52:21;2.38;;;0.90;;
65230;SDS011;51813;40.666;16.602;2022-09-21T13:54:57;2.30;;;0.88;;
65230;SDS011;51813;40.666;16.602;2022-09-21T13:57:27;2.03;;;0.93;;
65230;SDS011;51813;40.666;16.602;2022-09-21T14:02:39;1.15;;;0.60;;
65230;SDS011;51813;40.666;16.602;2022-09-21T14:10:39;3.85;;;0.85;;
65230;SDS011;51813;40.666;16.602;2022-09-21T14:19:02;2.35;;;0.90;;
65230;SDS011;51813;40.666;16.602;2022-09-21T14:32:36;2.40;;;0.90;;
65230;SDS011;51813;40.666;16.602;2022-09-21T14:35:15;2.92;;;1.20;;
65230;SDS011;51813;40.666;16.602;2022-09-21T14:37:48;3.13;;;1.00;;
65230;SDS011;51813;40.666;16.602;2022-09-21T14:40:34;3.90;;;1.20;;
65230;SDS011;51813;40.666;16.602;2022-09-21T14:43:10;2.72;;;0.93;;
65230;SDS011;51813;40.666;16.602;2022-09-21T15:01:59;1.88;;;0.98;;
65230;SDS011;51813;40.666;16.602;2022-09-21T15:18:37;2.38;;;0.90;;
65230;SDS011;51813;40.666;16.602;2022-09-21T15:21:17;2.38;;;0.90;;
65230;SDS011;51813;40.666;16.602;2022-09-21T15:23:50;2.22;;;0.90;;
65230;SDS011;51813;40.666;16.602;2022-09-21T15:26:27;1.70;;;0.90;;
65230;SDS011;51813;40.666;16.602;2022-09-21T15:28:56;2.28;;;0.90;;
65230;SDS011;51813;40.666;16.602;2022-09-21T15:31:24;2.65;;;1.10;;
65230;SDS011;51813;40.666;16.602;2022-09-21T15:33:55;3.03;;;1.17;;
65230;SDS011;51813;40.666;16.602;2022-09-21T15:36:22;2.03;;;0.95;;
65230;SDS011;51813;40.666;16.602;2022-09-21T15:38:51;1.80;;;1.00;;
65230;SDS011;51813;40.666;16.602;2022-09-21T15:44:11;2.42;;;1.30;;
65230;SDS011;51813;40.666;16.602;2022-09-21T15:46:47;3.15;;;1.02;;
65230;SDS011;51813;40.666;16.602;2022-09-21T15:49:18;1.88;;;0.95;;
65230;SDS011;51813;40.666;16.602;2022-09-21T15:51:53;2.15;;;1.15;;
65230;SDS011;51813;40.666;16.602;2022-09-21T15:54:35;2.45;;;0.90;;
65230;SDS011;51813;40.666;16.602;2022-09-21T15:57:20;3.10;;;0.80;;
65230;SDS011;51813;40.666;16.602;2022-09-21T15:59:53;2.30;;;0.90;;
65230;SDS011;51813;40.666;16.602;2022-09-21T16:02:20;2.60;;;1.08;;
65230;SDS011;51813;40.666;16.602;2022-09-21T16:04:48;2.88;;;0.90;;
65230;SDS011;51813;40.666;16.602;2022-09-21T16:07:33;2.20;;;0.90;;
65230;SDS011;51813;40.666;16.602;2022-09-21T16:10:00;2.47;;;0.90;;
65230;SDS011;51813;40.666;16.602;2022-09-21T16:12:40;1.73;;;0.77;;
65230;SDS011;51813;40.666;16.602;2022-09-21T16:15:18;2.55;;;1.08;;
65230;SDS011;51813;40.666;16.602;2022-09-21T16:17:56;1.45;;;0.80;;
65230;SDS011;51813;40.666;16.602;2022-09-21T16:20:40;1.65;;;0.90;;
65230;SDS011;51813;40.666;16.602;2022-09-21T16:23:13;2.15;;;1.00;;
65230;SDS011;51813;40.666;16.602;2022-09-21T16:25:52;1.35;;;0.70;;
65230;SDS011;51813;40.666;16.602;2022-09-21T16:28:33;2.22;;;0.90;;
65230;SDS011;51813;40.666;16.602;2022-09-21T16:30:59;1.27;;;0.70;;
65230;SDS011;51813;40.666;16.602;2022-09-21T16:33:34;2.10;;;1.00;;
65230;SDS011;51813;40.666;16.602;2022-09-21T16:36:04;2.25;;;1.10;;
65230;SDS011;51813;40.666;16.602;2022-09-21T16:38:49;3.53;;;1.30;;
65230;SDS011;51813;40.666;16.602;2022-09-21T16:41:20;5.13;;;1.55;;
65230;SDS011;51813;40.666;16.602;2022-09-21T16:43:47;3.28;;;1.10;;
65230;SDS011;51813;40.666;16.602;2022-09-21T16:46:15;4.10;;;1.25;;
65230;SDS011;51813;40.666;16.602;2022-09-21T16:48:42;2.45;;;1.48;;
65230;SDS011;51813;40.666;16.602;2022-09-21T16:51:12;2.28;;;1.20;;
65230;SDS011;51813;40.666;16.602;2022-09-21T16:53:39;2.55;;;1.05;;
65230;SDS011;51813;40.666;16.602;2022-09-21T16:56:07;1.88;;;0.90;;
65230;SDS011;51813;40.666;16.602;2022-09-21T16:58:38;1.90;;;1.10;;
65230;SDS011;51813;40.666;16.602;2022-09-21T17:01:06;2.42;;;1.15;;
65230;SDS011;51813;40.666;16.602;2022-09-21T17:03:33;1.85;;;1.00;;
65230;SDS011;51813;40.666;16.602;2022-09-21T17:05:59;2.25;;;1.10;;
65230;SDS011;51813;40.666;16.602;2022-09-21T17:08:24;2.20;;;1.05;;
65230;SDS011;51813;40.666;16.602;2022-09-21T17:10:54;3.45;;;1.00;;
65230;SDS011;51813;40.666;16.602;2022-09-21T17:13:19;1.63;;;0.90;;
65230;SDS011;51813;40.666;16.602;2022-09-21T17:15:45;2.17;;;1.15;;
65230;SDS011;51813;40.666;16.602;2022-09-21T17:18:12;2.30;;;0.98;;
65230;SDS011;51813;40.666;16.602;2022-09-21T17:20:40;3.28;;;1.10;;
65230;SDS011;51813;40.666;16.602;2022-09-21T17:23:07;1.77;;;0.90;;
65230;SDS011;51813;40.666;16.602;2022-09-21T17:25:34;3.90;;;1.25;;
65230;SDS011;51813;40.666;16.602;2022-09-21T17:28:01;2.58;;;1.10;;
65230;SDS011;51813;40.666;16.602;2022-09-21T17:30:28;1.75;;;0.90;;
65230;SDS011;51813;40.666;16.602;2022-09-21T17:32:54;1.55;;;0.80;;
65230;SDS011;51813;40.666;16.602;2022-09-21T17:35:35;1.77;;;1.00;;
65230;SDS011;51813;40.666;16.602;2022-09-21T17:38:05;1.63;;;0.80;;
65230;SDS011;51813;40.666;16.602;2022-09-21T17:40:35;1.60;;;0.70;;
65230;SDS011;51813;40.666;16.602;2022-09-21T17:48:59;1.95;;;0.90;;
65230;SDS011;51813;40.666;16.602;2022-09-21T17:51:26;2.42;;;1.00;;
65230;SDS011;51813;40.666;16.602;2022-09-21T17:54:10;2.45;;;1.02;;
65230;SDS011;51813;40.666;16.602;2022-09-21T17:56:50;2.17;;;0.88;;
65230;SDS011;51813;40.666;16.602;2022-09-21T17:59:32;2.38;;;0.95;;
65230;SDS011;51813;40.666;16.602;2022-09-21T18:02:00;2.30;;;1.10;;
65230;SDS011;51813;40.666;16.602;2022-09-21T18:04:29;2.55;;;0.98;;
65230;SDS011;51813;40.666;16.602;2022-09-21T18:06:58;1.60;;;0.90;;
65230;SDS011;51813;40.666;16.602;2022-09-21T18:09:24;1.98;;;0.95;;
65230;SDS011;51813;40.666;16.602;2022-09-21T18:25:15;2.70;;;1.17;;
65230;SDS011;51813;40.666;16.602;2022-09-21T18:27:56;2.17;;;1.40;;
65230;SDS011;51813;40.666;16.602;2022-09-21T18:30:23;2.47;;;1.30;;
65230;SDS011;51813;40.666;16.602;2022-09-21T18:35:57;2.50;;;1.20;;
65230;SDS011;51813;40.666;16.602;2022-09-21T18:41:13;3.05;;;1.30;;
65230;SDS011;51813;40.666;16.602;2022-09-21T18:44:07;2.08;;;1.15;;
65230;SDS011;51813;40.666;16.602;2022-09-21T18:50:05;3.17;;;1.40;;
65230;SDS011;51813;40.666;16.602;2022-09-21T18:52:48;1.70;;;1.05;;
65230;SDS011;51813;40.666;16.602;2022-09-21T18:57:52;2.17;;;1.10;;
65230;SDS011;51813;40.666;16.602;2022-09-21T19:00:22;2.38;;;1.13;;
65230;SDS011;51813;40.666;16.602;2022-09-21T19:02:59;1.60;;;0.93;;
65230;SDS011;51813;40.666;16.602;2022-09-21T19:05:26;1.95;;;1.00;;
65230;SDS011;51813;40.666;16.602;2022-09-21T19:07:53;3.58;;;1.15;;
65230;SDS011;51813;40.666;16.602;2022-09-21T19:10:59;2.22;;;0.85;;
65230;SDS011;51813;40.666;16.602;2022-09-21T19:13:54;2.78;;;1.10;;
65230;SDS011;51813;40.666;16.602;2022-09-21T19:19:31;3.25;;;1.17;;
65230;SDS011;51813;40.666;16.602;2022-09-21T19:21:59;1.80;;;1.00;;